createdAt,value
2023-10-25T00:00:17.647Z,59.08
2023-10-25T00:02:45.935Z,59.11
2023-10-25T00:05:14.531Z,59.22
2023-10-25T00:07:42.844Z,59.15
2023-10-25T00:10:11.788Z,59.19
2023-10-25T00:12:40.436Z,59.16
2023-10-25T00:15:11.226Z,59.07
2023-10-25T00:17:39.611Z,59.05
2023-10-25T00:20:10.036Z,59.12
2023-10-25T00:22:38.404Z,59.08
2023-10-25T00:25:07.731Z,59.15
2023-10-25T00:27:36.131Z,59.19
2023-10-25T00:30:05.233Z,59.15
2023-10-25T00:32:34.967Z,59.12
2023-10-25T00:35:03.937Z,59.19
2023-10-25T00:37:32.455Z,59.23
2023-10-25T00:40:00.775Z,59.24
2023-10-25T00:42:29.073Z,59.31
2023-10-25T00:44:57.861Z,59.38
2023-10-25T00:47:27.042Z,59.35
2023-10-25T00:49:57.047Z,59.40
2023-10-25T00:52:25.803Z,59.42
2023-10-25T00:54:54.976Z,59.41
2023-10-25T00:57:23.428Z,59.36
2023-10-25T00:59:52.571Z,59.34
2023-10-25T01:02:21.033Z,59.28
2023-10-25T01:04:49.454Z,59.37
2023-10-25T01:07:19.181Z,59.36
2023-10-25T01:09:47.959Z,59.40
2023-10-25T01:12:16.532Z,59.44
2023-10-25T01:14:44.824Z,59.37
2023-10-25T01:17:13.319Z,59.37
2023-10-25T01:19:41.867Z,59.36
2023-10-25T01:22:10.412Z,59.31
2023-10-25T01:24:40.230Z,59.31
2023-10-25T01:27:08.601Z,59.36
2023-10-25T01:29:36.935Z,59.38
2023-10-25T01:32:06.299Z,59.35
2023-10-25T01:34:34.718Z,59.35
2023-10-25T01:37:03.085Z,59.37
2023-10-25T01:39:31.500Z,59.36
2023-10-25T01:42:01.239Z,59.21
2023-10-25T01:44:29.621Z,59.33
2023-10-25T01:46:58.025Z,59.27
2023-10-25T01:49:26.740Z,59.29
2023-10-25T01:51:55.036Z,59.22
2023-10-25T01:54:23.440Z,59.26
2023-10-25T01:56:51.838Z,59.23
2023-10-25T01:59:21.562Z,59.18
2023-10-25T02:01:49.970Z,59.30
2023-10-25T02:04:18.393Z,59.30
2023-10-25T02:06:46.868Z,59.23
2023-10-25T02:09:15.178Z,59.35
2023-10-25T02:11:43.559Z,59.19
2023-10-25T02:14:11.946Z,59.18
2023-10-25T02:16:42.281Z,59.29
2023-10-25T02:19:11.061Z,59.29
2023-10-25T02:21:39.601Z,59.29
2023-10-25T02:24:08.986Z,59.31
2023-10-25T02:26:37.290Z,59.32
2023-10-25T02:29:05.710Z,59.21
2023-10-25T02:31:35.786Z,59.08
2023-10-25T02:34:06.641Z,59.15
2023-10-25T02:36:36.197Z,59.04
2023-10-25T02:39:04.689Z,58.97
2023-10-25T02:41:33.218Z,59.11
2023-10-25T02:44:03.893Z,59.11
2023-10-25T02:46:32.382Z,59.13
2023-10-25T02:49:00.789Z,59.03
2023-10-25T02:51:30.586Z,59.04
2023-10-25T02:53:58.834Z,58.93
2023-10-25T02:56:27.171Z,58.88
2023-10-25T02:59:16.823Z,58.93
2023-10-25T03:01:45.404Z,58.86
2023-10-25T03:04:13.831Z,58.76
2023-10-25T03:06:43.621Z,58.72
2023-10-25T03:09:12.438Z,58.77
2023-10-25T03:11:40.838Z,58.62
2023-10-25T03:14:09.183Z,58.62
2023-10-25T03:16:37.622Z,58.65
2023-10-25T03:19:06.272Z,58.58
2023-10-25T03:21:34.756Z,58.57
2023-10-25T03:24:03.793Z,58.39
2023-10-25T03:26:32.205Z,58.35
2023-10-25T03:29:00.540Z,58.19
2023-10-25T03:31:28.955Z,58.07
2023-10-25T03:33:57.383Z,57.94
2023-10-25T03:36:25.820Z,57.77
2023-10-25T03:38:54.175Z,57.77
2023-10-25T03:41:23.858Z,57.61
2023-10-25T03:43:52.177Z,57.42
2023-10-25T03:46:20.531Z,57.28
2023-10-25T03:48:48.985Z,57.31
2023-10-25T03:51:17.430Z,57.37
2023-10-25T03:53:45.772Z,57.23
2023-10-25T03:56:14.034Z,57.17
2023-10-25T03:58:43.678Z,57.20
2023-10-25T04:01:12.773Z,57.38
2023-10-25T04:03:41.863Z,57.41
2023-10-25T04:06:10.982Z,57.20
2023-10-25T04:08:39.290Z,57.43
2023-10-25T04:11:08.767Z,57.49
2023-10-25T04:13:37.195Z,57.50
2023-10-25T04:16:09.251Z,57.46
2023-10-25T04:18:38.547Z,57.66
2023-10-25T04:21:13.598Z,57.67
2023-10-25T04:23:42.167Z,57.66
2023-10-25T04:26:12.398Z,57.64
2023-10-25T04:28:43.612Z,57.77
2023-10-25T04:31:14.339Z,57.73
2023-10-25T04:33:42.765Z,57.76
2023-10-25T04:36:12.206Z,57.64
2023-10-25T04:38:40.563Z,57.59
2023-10-25T04:41:09.115Z,57.51
2023-10-25T04:43:37.463Z,57.50
2023-10-25T04:46:06.288Z,57.33
2023-10-25T04:48:36.211Z,57.13
2023-10-25T04:51:05.888Z,57.08
2023-10-25T04:53:34.274Z,56.97
2023-10-25T04:56:03.184Z,57.17
2023-10-25T04:58:31.515Z,57.00
2023-10-25T05:00:59.905Z,56.97
2023-10-25T05:03:28.427Z,57.08
2023-10-25T05:05:58.351Z,57.11
2023-10-25T05:08:27.661Z,57.00
2023-10-25T05:10:57.385Z,56.95
2023-10-25T05:13:26.582Z,56.96
2023-10-25T05:15:55.871Z,56.93
2023-10-25T05:18:25.267Z,56.79
2023-10-25T05:21:02.541Z,56.95
2023-10-25T05:23:32.284Z,56.71
2023-10-25T05:26:02.864Z,56.90
2023-10-25T05:28:33.115Z,56.76
2023-10-25T05:31:04.353Z,56.98
2023-10-25T05:33:34.208Z,57.12
2023-10-25T05:36:05.192Z,57.04
2023-10-25T05:38:34.457Z,57.15
2023-10-25T05:41:03.918Z,57.36
2023-10-25T05:43:39.418Z,57.29
2023-10-25T05:46:07.881Z,57.41
2023-10-25T05:48:37.499Z,57.45
2023-10-25T05:51:08.697Z,57.37
2023-10-25T05:53:37.861Z,57.39
2023-10-25T05:56:07.476Z,57.28
2023-10-25T05:58:36.624Z,57.26
2023-10-25T06:01:09.589Z,57.05
2023-10-25T06:03:39.309Z,57.17
2023-10-25T06:06:14.696Z,56.96
2023-10-25T06:08:43.744Z,56.91
2023-10-25T06:11:16.864Z,56.97
2023-10-25T06:13:46.149Z,56.92
2023-10-25T06:16:14.943Z,57.16
2023-10-25T06:18:43.295Z,57.29
2023-10-25T06:21:13.020Z,57.35
2023-10-25T06:23:41.373Z,57.43
2023-10-25T06:26:09.780Z,57.30
2023-10-25T06:28:38.107Z,57.52
2023-10-25T06:31:06.562Z,57.75
2023-10-25T06:33:34.868Z,57.79
2023-10-25T06:36:04.006Z,57.94
2023-10-25T06:38:34.899Z,58.17
2023-10-25T06:41:04.255Z,58.34
2023-10-25T06:43:33.738Z,58.59
2023-10-25T06:46:05.532Z,58.54
2023-10-25T06:48:36.009Z,58.60
2023-10-25T06:51:07.123Z,58.81
2023-10-25T06:53:38.457Z,59.09
2023-10-25T06:56:08.404Z,59.34
2023-10-25T06:58:38.329Z,59.37
2023-10-25T07:01:08.640Z,59.42
2023-10-25T07:03:38.818Z,59.73
2023-10-25T07:06:08.563Z,59.63
2023-10-25T07:08:39.228Z,59.86
2023-10-25T07:11:07.955Z,59.89
2023-10-25T07:13:36.323Z,59.90
2023-10-25T07:16:05.063Z,59.80
2023-10-25T07:18:33.533Z,59.52
2023-10-25T07:21:02.731Z,59.25
2023-10-25T07:23:31.026Z,59.14
2023-10-25T07:26:01.039Z,58.71
2023-10-25T07:28:29.581Z,58.19
2023-10-25T07:30:58.005Z,57.96
2023-10-25T07:33:26.496Z,57.56
2023-10-25T07:35:54.770Z,57.38
2023-10-25T07:38:23.150Z,57.08
2023-10-25T07:40:51.530Z,56.81
2023-10-25T07:43:21.999Z,56.70
2023-10-25T07:45:51.613Z,56.69
2023-10-25T07:48:21.810Z,56.64
2023-10-25T07:50:50.145Z,56.62
2023-10-25T07:53:18.451Z,57.02
2023-10-25T08:00:51.633Z,58.75
2023-10-25T08:03:20.202Z,58.81
2023-10-25T08:05:48.648Z,58.50
2023-10-25T08:08:18.458Z,58.07
2023-10-25T08:10:47.901Z,57.26
2023-10-25T08:13:17.328Z,56.42
2023-10-25T08:15:46.431Z,55.48
2023-10-25T08:18:16.971Z,55.54
2023-10-25T08:20:45.457Z,55.64
2023-10-25T08:23:13.852Z,55.20
2023-10-25T08:25:42.582Z,55.18
2023-10-25T08:28:11.025Z,54.99
2023-10-25T08:30:39.472Z,55.18
2023-10-25T08:33:07.951Z,55.35
2023-10-25T08:35:38.458Z,55.05
2023-10-25T08:38:07.232Z,55.18
2023-10-25T08:40:41.094Z,54.46
2023-10-25T08:43:09.767Z,54.50
2023-10-25T08:45:38.092Z,54.42
2023-10-25T08:48:09.600Z,54.13
2023-10-25T08:50:41.690Z,53.89
2023-10-25T08:53:11.022Z,54.14
2023-10-25T08:55:39.419Z,53.59
2023-10-25T08:58:07.999Z,53.37
2023-10-25T09:00:49.721Z,53.03
2023-10-25T09:03:44.777Z,52.29
2023-10-25T09:06:25.435Z,52.31
2023-10-25T09:09:03.575Z,52.65
2023-10-25T09:11:43.224Z,51.99
2023-10-25T09:14:13.076Z,51.67
2023-10-25T09:16:46.069Z,51.64
2023-10-25T09:19:20.405Z,50.64
2023-10-25T09:21:50.055Z,50.62
2023-10-25T09:24:18.330Z,50.20
2023-10-25T09:26:47.631Z,49.53
2023-10-25T09:29:29.085Z,49.41
2023-10-25T09:32:08.747Z,48.01
2023-10-25T09:34:37.773Z,48.19
2023-10-25T09:37:08.982Z,48.03
2023-10-25T09:39:38.305Z,48.09
2023-10-25T09:42:11.156Z,48.19
2023-10-25T09:44:47.133Z,48.53
2023-10-25T09:47:19.164Z,48.55
2023-10-25T09:49:56.961Z,48.56
2023-10-25T09:52:30.270Z,47.74
2023-10-25T09:55:08.583Z,47.59
2023-10-25T09:57:38.224Z,47.08
2023-10-25T10:00:09.984Z,46.31
2023-10-25T10:02:56.968Z,46.67
2023-10-25T10:05:33.911Z,46.26
2023-10-25T10:08:12.803Z,45.53
2023-10-25T10:10:48.506Z,44.88
2023-10-25T10:13:17.994Z,44.22
2023-10-25T10:16:05.536Z,44.48
2023-10-25T10:18:35.183Z,43.78
2023-10-25T10:21:05.726Z,43.21
2023-10-25T10:23:41.333Z,43.49
2023-10-25T10:26:10.383Z,42.49
2023-10-25T10:28:40.743Z,42.27
2023-10-25T10:31:10.632Z,42.18
2023-10-25T10:33:46.895Z,42.73
2023-10-25T10:36:26.870Z,42.85
2023-10-25T10:39:16.301Z,42.10
2023-10-25T10:41:46.128Z,42.11
2023-10-25T10:44:14.618Z,42.07
2023-10-25T10:46:53.485Z,42.13
2023-10-25T10:49:23.033Z,41.50
2023-10-25T10:51:51.709Z,41.53
2023-10-25T10:54:21.398Z,41.81
2023-10-25T10:56:49.956Z,41.29
2023-10-25T10:59:18.807Z,41.22
2023-10-25T11:01:47.217Z,41.54
2023-10-25T11:04:15.892Z,40.57
2023-10-25T11:06:44.238Z,40.45
2023-10-25T11:09:12.597Z,39.86
2023-10-25T11:11:42.317Z,40.08
2023-10-25T11:14:10.703Z,40.36
2023-10-25T11:16:39.224Z,40.80
2023-10-25T11:19:09.312Z,40.39
2023-10-25T11:21:38.196Z,40.98
2023-10-25T11:24:09.098Z,40.92
2023-10-25T11:26:41.645Z,40.52
2023-10-25T11:29:11.585Z,41.31
2023-10-25T11:31:49.374Z,41.45
2023-10-25T11:34:21.744Z,41.20
2023-10-25T11:36:50.867Z,41.03
2023-10-25T11:39:19.203Z,41.41
2023-10-25T11:41:47.680Z,41.38
2023-10-25T11:44:23.316Z,40.74
2023-10-25T11:46:52.678Z,40.69
2023-10-25T11:49:22.552Z,40.59
2023-10-25T11:51:50.879Z,40.37
2023-10-25T11:54:19.375Z,40.97
2023-10-25T11:56:49.521Z,40.79
2023-10-25T11:59:19.355Z,41.03
2023-10-25T12:01:47.683Z,41.10
2023-10-25T12:04:16.041Z,41.18
2023-10-25T12:06:44.573Z,41.46
2023-10-25T12:09:12.867Z,41.23
2023-10-25T12:11:41.227Z,41.32
2023-10-25T12:14:11.975Z,41.29
2023-10-25T12:16:47.237Z,40.25
2023-10-25T12:19:15.589Z,40.49
2023-10-25T12:21:43.985Z,40.65
2023-10-25T12:24:12.395Z,40.80
2023-10-25T12:26:40.704Z,40.19
2023-10-25T12:29:09.106Z,40.23
2023-10-25T12:31:37.423Z,40.15
2023-10-25T12:34:07.104Z,40.49
2023-10-25T12:36:35.435Z,40.41
2023-10-25T12:39:03.912Z,40.88
2023-10-25T12:41:34.065Z,40.51
2023-10-25T12:44:03.605Z,40.19
2023-10-25T12:46:31.883Z,40.45
2023-10-25T12:49:00.551Z,40.40
2023-10-25T12:51:30.323Z,40.13
2023-10-25T12:53:58.833Z,39.32
2023-10-25T12:56:28.215Z,39.69
2023-10-25T12:58:57.009Z,39.59
2023-10-25T13:01:25.445Z,39.59
2023-10-25T13:03:53.921Z,39.88
2023-10-25T13:06:22.527Z,39.24
2023-10-25T13:08:52.231Z,38.90
2023-10-25T13:11:20.610Z,38.21
2023-10-25T13:13:48.949Z,37.88
2023-10-25T13:16:17.352Z,37.81
2023-10-25T13:18:45.765Z,38.24
2023-10-25T13:21:14.125Z,37.97
2023-10-25T13:23:44.818Z,38.05
2023-10-25T13:26:14.998Z,38.23
2023-10-25T13:28:43.335Z,38.51
2023-10-25T13:31:11.862Z,38.60
2023-10-25T13:33:40.395Z,38.51
2023-10-25T13:36:09.638Z,38.35
2023-10-25T13:38:37.962Z,38.56
2023-10-25T13:41:06.325Z,38.92
2023-10-25T13:43:40.675Z,38.99
2023-10-25T13:46:09.140Z,38.56
2023-10-25T13:48:37.610Z,38.87
2023-10-25T13:51:06.113Z,39.01
2023-10-25T13:53:34.610Z,39.26
2023-10-25T13:56:03.527Z,39.68
2023-10-25T13:58:32.282Z,39.55
2023-10-25T14:01:05.195Z,39.93
2023-10-25T14:03:33.569Z,40.18
2023-10-25T14:06:05.800Z,40.68
2023-10-25T14:12:40.591Z,40.74
2023-10-25T14:15:10.481Z,40.50
2023-10-25T14:17:41.017Z,40.62
2023-10-25T14:20:11.240Z,40.47
2023-10-25T14:22:39.567Z,41.11
2023-10-25T14:25:09.583Z,41.06
2023-10-25T14:27:38.736Z,41.65
2023-10-25T14:30:09.384Z,41.53
2023-10-25T14:32:39.262Z,41.27
2023-10-25T14:35:08.685Z,41.59
2023-10-25T14:37:37.081Z,41.37
2023-10-25T14:40:08.088Z,41.98
2023-10-25T14:42:37.280Z,41.97
2023-10-25T14:45:06.666Z,41.94
2023-10-25T14:47:35.081Z,42.31
2023-10-25T14:50:05.766Z,42.28
2023-10-25T14:52:34.093Z,42.45
2023-10-25T14:55:02.598Z,42.39
2023-10-25T14:57:31.395Z,42.55
2023-10-25T15:00:06.444Z,42.83
2023-10-25T15:02:34.857Z,43.04
2023-10-25T15:05:05.041Z,43.00
2023-10-25T15:07:34.943Z,42.92
2023-10-25T15:10:04.871Z,43.12
2023-10-25T15:12:33.590Z,43.21
2023-10-25T15:15:03.005Z,43.43
2023-10-25T15:17:31.485Z,43.23
2023-10-25T15:19:59.889Z,43.39
2023-10-25T15:22:29.669Z,43.41
2023-10-25T15:24:57.999Z,43.57
2023-10-25T15:27:26.327Z,43.67
2023-10-25T15:29:54.648Z,44.28
2023-10-25T15:32:25.837Z,44.43
2023-10-25T15:34:54.685Z,44.54
2023-10-25T15:37:23.280Z,44.36
2023-10-25T15:40:09.527Z,44.28
2023-10-25T15:42:44.304Z,44.31
2023-10-25T15:45:18.657Z,44.56
2023-10-25T15:47:47.408Z,44.99
2023-10-25T15:50:15.854Z,44.85
2023-10-25T15:52:51.524Z,45.04
2023-10-25T15:55:30.264Z,45.49
2023-10-25T15:58:00.456Z,45.56
2023-10-25T16:00:30.141Z,45.92
2023-10-25T16:02:58.734Z,45.96
2023-10-25T16:05:27.352Z,45.79
2023-10-25T16:07:55.641Z,46.13
2023-10-25T16:10:25.312Z,46.25
2023-10-25T16:12:55.163Z,46.36
2023-10-25T16:15:23.553Z,46.47
2023-10-25T16:17:55.082Z,46.52
2023-10-25T16:20:23.609Z,46.58
2023-10-25T16:22:52.089Z,46.80
2023-10-25T16:25:20.401Z,46.99
2023-10-25T16:27:48.754Z,47.10
2023-10-25T16:30:18.924Z,47.15
2023-10-25T16:33:34.064Z,47.06
2023-10-25T16:36:02.932Z,47.33
2023-10-25T16:38:31.732Z,47.29
2023-10-25T16:41:03.455Z,47.39
2023-10-25T16:43:32.637Z,47.41
2023-10-25T16:46:07.426Z,47.64
2023-10-25T16:48:37.526Z,47.85
2023-10-25T16:51:14.280Z,47.82
2023-10-25T16:53:47.492Z,47.90
2023-10-25T16:56:17.617Z,48.17
2023-10-25T16:58:46.498Z,48.29
2023-10-25T17:01:16.574Z,48.18
2023-10-25T17:03:46.782Z,48.23
2023-10-25T17:06:15.567Z,48.65
2023-10-25T17:08:44.291Z,48.43
2023-10-25T17:14:06.356Z,48.55
2023-10-25T17:16:36.182Z,48.92
2023-10-25T17:19:04.621Z,48.72
2023-10-25T17:21:34.033Z,49.10
2023-10-25T17:24:02.797Z,49.16
2023-10-25T17:26:31.156Z,49.11
2023-10-25T17:28:59.713Z,49.11
2023-10-25T17:31:28.156Z,49.36
2023-10-25T17:33:57.918Z,49.25
2023-10-25T17:36:26.397Z,49.36
2023-10-25T17:38:54.882Z,49.17
2023-10-25T17:41:23.546Z,49.29
2023-10-25T17:43:51.896Z,49.35
2023-10-25T17:46:20.324Z,49.38
2023-10-25T17:48:48.743Z,49.75
2023-10-25T17:51:18.457Z,49.91
2023-10-25T17:53:46.936Z,50.03
2023-10-25T17:56:15.293Z,50.03
2023-10-25T17:58:43.761Z,50.22
2023-10-25T18:03:45.609Z,50.64
2023-10-25T18:06:14.434Z,50.73
2023-10-25T18:08:44.277Z,50.81
2023-10-25T18:11:14.598Z,50.95
2023-10-25T18:16:23.594Z,51.15
2023-10-25T18:18:52.122Z,51.10
2023-10-25T18:21:20.730Z,51.31
2023-10-25T18:23:50.606Z,51.48
2023-10-25T18:26:19.086Z,51.53
2023-10-25T18:28:47.452Z,51.63
2023-10-25T18:31:58.741Z,51.82
2023-10-25T18:34:24.036Z,51.78
2023-10-25T18:36:53.597Z,52.17
2023-10-25T18:39:24.967Z,51.96
2023-10-25T18:41:53.545Z,52.25
2023-10-25T18:44:22.122Z,52.29
2023-10-25T18:46:52.106Z,52.31
2023-10-25T18:49:20.641Z,52.44
2023-10-25T18:51:49.007Z,52.43
2023-10-25T18:54:20.631Z,52.55
2023-10-25T18:56:50.504Z,52.51
2023-10-25T18:59:19.422Z,52.59
2023-10-25T19:01:47.800Z,52.56
2023-10-25T19:04:16.214Z,52.82
2023-10-25T19:06:47.842Z,52.85
2023-10-25T19:09:17.476Z,52.94
2023-10-25T19:11:45.960Z,52.99
2023-10-25T19:14:15.786Z,53.01
2023-10-25T19:16:44.097Z,53.29
2023-10-25T19:19:12.579Z,53.43
2023-10-25T19:21:40.869Z,53.33
2023-10-25T19:24:09.861Z,53.40
2023-10-25T19:26:47.601Z,53.56
2023-10-25T19:29:19.588Z,53.58
2023-10-25T19:31:48.811Z,53.61
2023-10-25T19:34:17.255Z,53.80
2023-10-25T19:36:46.105Z,53.80
2023-10-25T19:39:14.838Z,53.93
2023-10-25T19:41:43.348Z,53.86
2023-10-25T19:44:11.729Z,53.91
2023-10-25T19:46:44.959Z,53.93
2023-10-25T19:49:13.289Z,54.03
2023-10-25T19:51:43.284Z,53.97
2023-10-25T19:54:12.566Z,53.84
2023-10-25T19:56:41.312Z,53.92
2023-10-25T19:59:09.671Z,53.87
2023-10-25T20:01:40.811Z,53.91
2023-10-25T20:04:10.630Z,53.81
2023-10-25T20:06:39.039Z,53.86
2023-10-25T20:09:07.354Z,53.75
2023-10-25T20:11:35.713Z,53.82
2023-10-25T20:14:04.117Z,53.84
2023-10-25T20:16:32.771Z,53.84
2023-10-25T20:19:01.199Z,53.78
2023-10-25T20:21:31.118Z,54.02
2023-10-25T20:24:02.108Z,54.19
2023-10-25T20:26:35.152Z,54.43
2023-10-25T20:29:04.775Z,54.67
2023-10-25T20:31:33.354Z,54.70
2023-10-25T20:34:01.649Z,54.79
2023-10-25T20:36:31.724Z,54.73
2023-10-25T20:39:00.256Z,54.84
2023-10-25T20:41:28.931Z,54.82
2023-10-25T20:43:57.294Z,54.93
2023-10-25T20:46:25.733Z,54.94
2023-10-25T20:48:55.213Z,55.17
2023-10-25T20:51:24.982Z,55.46
2023-10-25T20:53:54.946Z,55.94
2023-10-25T20:56:23.288Z,55.91
2023-10-25T20:58:52.461Z,56.32
2023-10-25T21:01:20.935Z,56.44
2023-10-25T21:03:49.620Z,56.03
2023-10-25T21:06:18.557Z,55.78
2023-10-25T21:08:47.190Z,55.61
2023-10-25T21:11:17.010Z,55.50
2023-10-25T21:13:45.891Z,55.59
2023-10-25T21:16:14.897Z,55.44
2023-10-25T21:18:43.517Z,55.61
2023-10-25T21:21:13.172Z,55.47
2023-10-25T21:23:42.770Z,55.54
2023-10-25T21:26:12.679Z,55.43
2023-10-25T21:28:42.519Z,55.39
2023-10-25T21:31:11.466Z,55.44
2023-10-25T21:33:40.041Z,55.35
2023-10-25T21:36:10.965Z,55.28
2023-10-25T21:38:41.304Z,55.24
2023-10-25T21:41:13.467Z,55.22
2023-10-25T21:43:44.215Z,55.17
2023-10-25T21:46:13.093Z,55.21
2023-10-25T21:48:41.808Z,55.23
2023-10-25T21:51:10.427Z,55.15
2023-10-25T21:53:39.924Z,55.07
2023-10-25T21:56:21.650Z,55.08
2023-10-25T21:59:51.002Z,55.00
2023-10-25T22:01:47.554Z,55.07
2023-10-25T22:04:17.961Z,55.22
2023-10-25T22:06:47.758Z,55.20
2023-10-25T22:09:17.197Z,55.05
2023-10-25T22:11:45.790Z,55.00
2023-10-25T22:14:16.064Z,54.91
2023-10-25T22:16:45.833Z,54.99
2023-10-25T22:19:14.489Z,55.04
2023-10-25T22:21:43.446Z,55.09
2023-10-25T22:24:14.327Z,54.99
2023-10-25T22:26:44.192Z,55.04
2023-10-25T22:29:17.297Z,55.08
2023-10-25T22:31:46.604Z,55.12
2023-10-25T22:34:18.964Z,55.13
2023-10-25T22:36:52.156Z,55.22
2023-10-25T22:39:20.784Z,55.27
2023-10-25T22:41:52.300Z,55.23
2023-10-25T22:44:22.197Z,55.13
2023-10-25T22:46:50.554Z,55.31
2023-10-25T22:49:18.960Z,55.09
2023-10-25T22:51:47.802Z,54.96
2023-10-25T22:54:16.562Z,55.05
2023-10-25T22:56:44.955Z,55.03
2023-10-25T22:59:13.329Z,54.94
2023-10-25T23:01:43.115Z,54.75
2023-10-25T23:04:11.781Z,54.86
2023-10-25T23:06:40.235Z,54.76
2023-10-25T23:09:09.047Z,54.64
2023-10-25T23:11:38.898Z,54.53
2023-10-25T23:14:07.718Z,54.49
2023-10-25T23:16:36.154Z,54.29
2023-10-25T23:19:06.350Z,54.23
2023-10-25T23:21:34.960Z,54.28
2023-10-25T23:24:03.424Z,54.14
2023-10-25T23:26:32.042Z,54.17
2023-10-25T23:29:00.358Z,54.07
2023-10-25T23:31:28.662Z,54.10
2023-10-25T23:33:57.088Z,54.18
2023-10-25T23:36:26.825Z,54.07
2023-10-25T23:38:55.409Z,54.05
2023-10-25T23:41:23.757Z,54.07
2023-10-25T23:43:52.196Z,54.10
2023-10-25T23:46:20.506Z,54.06
2023-10-25T23:48:49.080Z,54.08
2023-10-25T23:51:17.611Z,54.14
2023-10-25T23:53:47.626Z,54.16
2023-10-25T23:56:34.751Z,54.12
2023-10-25T23:59:04.382Z,54.14
